createdAt,value
2018-05-31T00:01:24.840Z,28.56
2018-05-31T00:03:56.942Z,28.65
2018-05-31T00:06:28.559Z,28.55
2018-05-31T00:08:59.478Z,28.86
2018-05-31T00:11:31.231Z,28.26
2018-05-31T00:14:03.227Z,28.44
2018-05-31T00:18:46.680Z,28.12
2018-05-31T00:21:18.525Z,28.26
2018-05-31T00:23:52.084Z,28.49
2018-05-31T00:26:24.244Z,28.91
2018-05-31T00:28:56.091Z,29.01
2018-05-31T00:31:27.602Z,28.69
2018-05-31T00:33:58.436Z,28.88
2018-05-31T00:42:31.678Z,28.92
2018-05-31T00:45:04.077Z,28.65
2018-05-31T00:47:36.288Z,29.29
2018-05-31T00:50:08.441Z,29.10
2018-05-31T00:58:51.863Z,29.38
2018-05-31T01:01:23.606Z,29.28
2018-05-31T01:03:55.560Z,29.44
2018-05-31T01:06:27.940Z,29.38
2018-05-31T01:08:59.582Z,29.44
2018-05-31T01:11:30.388Z,29.27
2018-05-31T01:14:02.310Z,29.56
2018-05-31T01:16:34.259Z,30.01
2018-05-31T01:21:50.618Z,30.00
2018-05-31T01:24:23.245Z,29.53
2018-05-31T01:26:56.221Z,29.99
2018-05-31T01:29:29.593Z,29.98
2018-05-31T01:32:00.527Z,29.61
2018-05-31T01:34:34.262Z,29.75
2018-05-31T01:37:07.896Z,29.92
2018-05-31T01:39:39.589Z,30.20
2018-05-31T01:42:10.501Z,30.13
2018-05-31T01:44:42.250Z,29.86
2018-05-31T01:47:14.261Z,30.27
2018-05-31T01:49:46.276Z,30.60
2018-05-31T01:52:18.265Z,30.56
2018-05-31T01:54:50.253Z,30.69
2018-05-31T01:57:22.244Z,30.48
2018-05-31T01:59:54.275Z,30.58
2018-05-31T02:02:26.293Z,30.74
2018-05-31T02:04:59.640Z,30.65
2018-05-31T02:07:30.544Z,30.77
2018-05-31T02:10:02.646Z,30.81
2018-05-31T02:12:33.565Z,30.85
2018-05-31T02:15:05.522Z,31.04
2018-05-31T02:17:38.295Z,30.49
2018-05-31T02:20:10.315Z,31.16
2018-05-31T02:22:42.287Z,30.99
2018-05-31T02:25:14.628Z,30.72
2018-05-31T02:27:45.582Z,30.57
2018-05-31T02:30:17.617Z,31.00
2018-05-31T02:32:49.619Z,31.36
2018-05-31T02:35:21.498Z,31.60
2018-05-31T02:37:54.530Z,31.55
2018-05-31T02:40:26.484Z,31.79
2018-05-31T02:42:57.404Z,31.72
2018-05-31T02:45:29.529Z,31.41
2018-05-31T02:48:01.608Z,31.70
2018-05-31T02:50:32.533Z,31.36
2018-05-31T02:53:03.555Z,31.72
2018-05-31T02:55:35.617Z,31.92
2018-05-31T02:58:06.516Z,31.83
2018-05-31T03:00:38.607Z,32.24
2018-05-31T03:03:09.542Z,31.82
2018-05-31T03:05:41.606Z,32.45
2018-05-31T03:08:12.552Z,32.44
2018-05-31T03:10:44.606Z,32.56
2018-05-31T03:13:15.542Z,32.58
2018-05-31T03:15:47.667Z,32.89
2018-05-31T03:18:18.110Z,32.50
2018-05-31T03:20:50.132Z,32.85
2018-05-31T03:23:22.604Z,33.00
2018-05-31T03:25:53.559Z,33.29
2018-05-31T03:28:25.513Z,33.10
2018-05-31T03:30:57.510Z,33.17
2018-05-31T03:33:29.513Z,33.51
2018-05-31T03:36:01.508Z,33.46
2018-05-31T03:38:33.520Z,34.04
2018-05-31T03:41:05.501Z,34.02
2018-05-31T03:43:37.499Z,33.95
2018-05-31T03:46:09.309Z,34.00
2018-05-31T03:48:41.278Z,33.74
2018-05-31T03:51:13.270Z,33.99
2018-05-31T03:53:45.251Z,33.97
2018-05-31T03:56:17.258Z,34.14
2018-05-31T03:58:49.267Z,34.00
2018-05-31T04:03:30.214Z,34.39
2018-05-31T04:06:03.085Z,33.94
2018-05-31T04:08:35.262Z,34.92
2018-05-31T04:13:33.770Z,34.78
2018-05-31T04:16:06.270Z,34.49
2018-05-31T04:18:37.582Z,34.46
2018-05-31T04:21:09.622Z,35.21
2018-05-31T04:23:40.618Z,34.68
2018-05-31T04:26:11.568Z,34.82
2018-05-31T04:28:42.589Z,35.02
2018-05-31T04:31:14.628Z,35.43
2018-05-31T04:36:10.014Z,35.28
2018-05-31T04:38:41.625Z,35.64
2018-05-31T04:41:13.578Z,36.11
2018-05-31T04:43:45.550Z,35.83
2018-05-31T04:46:17.665Z,36.06
2018-05-31T04:48:48.596Z,35.81
2018-05-31T04:51:19.591Z,36.01
2018-05-31T04:53:51.668Z,35.64
2018-05-31T04:56:24.896Z,35.89
2018-05-31T04:58:57.552Z,36.34
2018-05-31T05:01:29.547Z,36.25
2018-05-31T05:04:03.551Z,36.31
2018-05-31T05:06:35.579Z,36.58
2018-05-31T05:09:08.563Z,36.43
2018-05-31T05:11:40.557Z,36.44
2018-05-31T05:14:12.553Z,36.04
2018-05-31T05:16:44.539Z,36.40
2018-05-31T05:19:16.548Z,36.50
2018-05-31T05:21:48.547Z,37.15
2018-05-31T05:24:20.548Z,36.89
2018-05-31T05:28:51.742Z,36.34
2018-05-31T05:31:23.595Z,36.69
2018-05-31T05:33:55.629Z,36.97
2018-05-31T05:36:26.556Z,37.13
2018-05-31T05:38:58.537Z,37.01
2018-05-31T05:41:30.484Z,36.98
2018-05-31T05:45:09.889Z,37.35
2018-05-31T05:47:42.263Z,37.22
2018-05-31T05:50:14.628Z,37.37
2018-05-31T05:52:46.263Z,37.29
2018-05-31T05:55:18.285Z,37.30
2018-05-31T05:57:50.253Z,37.15
2018-05-31T06:00:22.513Z,37.41
2018-05-31T06:02:54.490Z,37.32
2018-05-31T06:05:26.474Z,37.52
2018-05-31T06:07:58.259Z,37.15
2018-05-31T06:10:30.264Z,36.81
2018-05-31T06:13:02.259Z,37.57
2018-05-31T06:15:34.249Z,37.69
2018-05-31T06:18:07.568Z,37.76
2018-05-31T06:20:39.247Z,37.72
2018-05-31T06:23:11.230Z,37.53
2018-05-31T06:25:43.487Z,37.40
2018-05-31T06:30:31.694Z,37.73
2018-05-31T06:33:03.559Z,37.36
2018-05-31T06:35:35.252Z,37.32
2018-05-31T06:38:07.241Z,37.62
2018-05-31T06:42:00.973Z,37.85
2018-05-31T06:44:33.268Z,37.55
2018-05-31T06:47:05.264Z,37.06
2018-05-31T06:51:30.852Z,37.54
2018-05-31T06:54:03.527Z,38.00
2018-05-31T06:56:35.635Z,38.01
2018-05-31T06:59:07.541Z,38.01
2018-05-31T07:01:39.667Z,38.21
2018-05-31T07:04:10.531Z,38.73
2018-05-31T07:06:42.552Z,38.69
2018-05-31T07:09:14.673Z,38.80
2018-05-31T07:11:45.519Z,38.67
2018-05-31T07:14:17.547Z,39.02
2018-05-31T07:16:49.548Z,38.67
2018-05-31T07:19:22.666Z,38.99
2018-05-31T07:21:54.669Z,39.66
2018-05-31T07:24:25.607Z,39.03
2018-05-31T07:26:57.702Z,39.17
2018-05-31T07:29:28.588Z,38.99
2018-05-31T07:32:00.664Z,39.50
2018-05-31T07:34:31.612Z,39.43
2018-05-31T07:37:02.586Z,39.59
2018-05-31T07:39:40.253Z,39.70
2018-05-31T07:42:12.391Z,39.94
2018-05-31T07:44:44.542Z,40.30
2018-05-31T07:47:16.541Z,40.39
2018-05-31T07:49:48.538Z,40.38
2018-05-31T07:52:20.556Z,40.66
2018-05-31T07:54:52.563Z,40.48
2018-05-31T07:57:24.669Z,40.30
2018-05-31T07:59:55.634Z,40.22
2018-05-31T08:02:27.668Z,40.30
2018-05-31T08:04:58.535Z,40.60
2018-05-31T08:07:30.623Z,40.72
2018-05-31T08:10:02.742Z,40.61
2018-05-31T08:12:35.732Z,40.17
2018-05-31T08:15:07.631Z,40.55
2018-05-31T08:17:39.630Z,40.44
2018-05-31T08:20:11.631Z,40.69
2018-05-31T08:22:42.556Z,40.71
2018-05-31T08:25:14.508Z,40.88
2018-05-31T08:27:46.540Z,40.85
2018-05-31T08:30:18.507Z,40.70
2018-05-31T08:32:50.506Z,41.03
2018-05-31T08:35:22.540Z,40.61
2018-05-31T08:37:54.542Z,40.91
2018-05-31T08:40:26.542Z,41.03
2018-05-31T08:42:58.540Z,41.18
2018-05-31T08:45:30.539Z,41.30
2018-05-31T08:48:02.541Z,41.29
2018-05-31T08:50:34.537Z,41.82
2018-05-31T08:53:06.509Z,41.36
2018-05-31T08:55:38.512Z,41.34
2018-05-31T08:58:10.510Z,41.63
2018-05-31T09:01:29.594Z,41.76
2018-05-31T09:04:01.503Z,41.76
2018-05-31T09:06:33.491Z,41.66
2018-05-31T09:09:04.353Z,42.03
2018-05-31T09:11:36.554Z,42.15
2018-05-31T09:14:07.538Z,42.21
2018-05-31T09:16:39.651Z,42.58
2018-05-31T09:19:11.527Z,42.57
2018-05-31T09:21:42.323Z,42.18
2018-05-31T09:24:13.381Z,42.56
2018-05-31T09:26:45.544Z,42.15
2018-05-31T09:29:16.401Z,42.60
2018-05-31T09:31:48.641Z,42.48
2018-05-31T09:34:21.420Z,42.60
2018-05-31T09:36:52.391Z,42.24
2018-05-31T09:39:24.529Z,42.25
2018-05-31T09:41:55.543Z,42.18
2018-05-31T09:44:26.242Z,42.25
2018-05-31T09:46:58.541Z,42.42
2018-05-31T09:49:30.627Z,42.25
2018-05-31T09:52:01.520Z,42.34
2018-05-31T09:54:33.534Z,42.55
2018-05-31T09:57:05.537Z,42.11
2018-05-31T09:59:36.360Z,42.04
2018-05-31T10:02:08.532Z,41.98
2018-05-31T10:04:40.549Z,41.92
2018-05-31T10:07:11.347Z,41.82
2018-05-31T10:12:35.966Z,42.14
2018-05-31T10:15:08.541Z,42.09
2018-05-31T10:17:39.205Z,41.71
2018-05-31T10:20:11.544Z,41.86
2018-05-31T10:22:43.596Z,42.22
2018-05-31T10:25:15.545Z,41.89
2018-05-31T10:27:46.246Z,41.79
2018-05-31T10:30:18.536Z,41.96
2018-05-31T10:32:49.109Z,42.20
2018-05-31T10:35:21.378Z,42.13
2018-05-31T10:37:53.617Z,41.78
2018-05-31T10:40:24.309Z,42.09
2018-05-31T10:42:58.749Z,42.13
2018-05-31T10:48:05.361Z,42.08
2018-05-31T10:50:36.575Z,41.99
2018-05-31T10:53:08.571Z,42.37
2018-05-31T10:55:40.677Z,42.45
2018-05-31T10:58:11.601Z,42.77
2018-05-31T11:00:43.686Z,42.90
2018-05-31T11:03:14.412Z,42.71
2018-05-31T11:05:46.609Z,42.38
2018-05-31T11:08:18.546Z,42.49
2018-05-31T11:10:50.588Z,42.30
2018-05-31T11:16:16.971Z,42.20
2018-05-31T11:20:25.566Z,42.18
2018-05-31T11:22:57.509Z,42.37
2018-05-31T11:25:29.540Z,42.43
2018-05-31T11:28:01.546Z,42.20
2018-05-31T11:30:33.546Z,42.11
2018-05-31T11:33:05.537Z,41.91
2018-05-31T11:35:37.549Z,41.70
2018-05-31T11:43:16.537Z,42.43
2018-05-31T11:45:48.555Z,42.44
2018-05-31T11:48:20.603Z,42.31
2018-05-31T11:50:52.628Z,42.49
2018-05-31T11:53:23.549Z,42.07
2018-05-31T11:55:55.629Z,41.90
2018-05-31T11:58:26.233Z,42.27
2018-05-31T12:00:58.285Z,42.83
2018-05-31T12:03:30.272Z,42.58
2018-05-31T12:06:02.280Z,42.19
2018-05-31T12:08:34.294Z,43.07
2018-05-31T12:11:06.264Z,42.54
2018-05-31T12:13:38.272Z,42.70
2018-05-31T12:16:10.273Z,42.89
2018-05-31T12:18:42.305Z,43.06
2018-05-31T12:21:14.296Z,42.52
2018-05-31T12:23:46.297Z,42.98
2018-05-31T12:26:18.289Z,42.87
2018-05-31T12:29:21.489Z,42.37
2018-05-31T12:31:53.629Z,42.96
2018-05-31T12:34:24.496Z,42.66
2018-05-31T12:36:56.563Z,42.94
2018-05-31T12:39:28.966Z,43.09
2018-05-31T12:42:00.589Z,42.83
2018-05-31T12:47:10.554Z,43.05
2018-05-31T12:49:42.240Z,43.12
2018-05-31T12:52:14.233Z,42.90
2018-05-31T12:54:46.231Z,43.10
2018-05-31T12:57:18.496Z,43.32
2018-05-31T12:59:50.262Z,43.22
2018-05-31T13:02:22.282Z,43.08
2018-05-31T13:04:54.237Z,42.76
2018-05-31T13:07:26.550Z,43.07
2018-05-31T13:09:58.505Z,42.80
2018-05-31T13:12:30.275Z,42.99
2018-05-31T13:16:43.598Z,42.54
2018-05-31T13:19:15.272Z,42.89
2018-05-31T13:21:47.243Z,42.84
2018-05-31T13:24:19.545Z,42.65
2018-05-31T13:26:51.525Z,42.53
2018-05-31T13:29:23.531Z,42.95
2018-05-31T13:31:55.530Z,42.87
2018-05-31T13:34:27.525Z,42.84
2018-05-31T13:36:59.519Z,42.92
2018-05-31T13:39:31.510Z,43.30
2018-05-31T13:42:03.505Z,42.83
2018-05-31T13:44:35.505Z,43.08
2018-05-31T13:47:07.510Z,42.79
2018-05-31T13:49:39.493Z,42.90
2018-05-31T13:52:11.506Z,43.10
2018-05-31T13:54:43.561Z,43.10
2018-05-31T13:57:15.507Z,42.88
2018-05-31T14:00:47.747Z,43.05
2018-05-31T14:03:19.585Z,43.11
2018-05-31T14:05:50.090Z,42.83
2018-05-31T14:08:22.035Z,43.17
2018-05-31T14:10:53.578Z,43.04
2018-05-31T14:13:24.089Z,42.73
2018-05-31T14:15:55.713Z,42.92
2018-05-31T14:18:27.503Z,43.23
2018-05-31T14:21:00.695Z,43.34
2018-05-31T14:23:32.558Z,43.17
2018-05-31T14:26:04.235Z,42.94
2018-05-31T14:29:33.850Z,42.86
2018-05-31T14:32:05.575Z,42.86
2018-05-31T14:34:36.417Z,42.94
2018-05-31T14:37:08.482Z,42.84
2018-05-31T14:39:40.252Z,42.68
2018-05-31T14:42:12.216Z,42.63
2018-05-31T14:44:44.195Z,42.64
2018-05-31T14:47:17.768Z,42.77
2018-05-31T14:49:49.542Z,43.25
2018-05-31T14:52:21.222Z,42.88
2018-05-31T14:54:53.157Z,42.75
2018-05-31T14:57:25.208Z,42.57
2018-05-31T14:59:57.058Z,42.90
2018-05-31T15:02:29.183Z,42.72
2018-05-31T15:05:01.208Z,42.40
2018-05-31T15:07:33.211Z,42.41
2018-05-31T15:12:10.479Z,42.60
2018-05-31T15:14:42.558Z,42.21
2018-05-31T15:17:16.138Z,42.04
2018-05-31T15:19:48.243Z,42.36
2018-05-31T15:22:20.234Z,42.09
2018-05-31T15:24:52.066Z,42.02
2018-05-31T15:27:23.569Z,42.07
2018-05-31T15:29:54.030Z,42.03
2018-05-31T15:32:25.607Z,42.03
2018-05-31T15:34:56.417Z,41.95
2018-05-31T15:37:28.216Z,41.63
2018-05-31T15:40:00.232Z,41.72
2018-05-31T15:42:32.120Z,42.06
2018-05-31T15:45:03.888Z,41.84
2018-05-31T15:47:36.243Z,42.10
2018-05-31T15:50:08.231Z,41.70
2018-05-31T15:52:40.233Z,41.64
2018-05-31T15:55:12.237Z,41.47
2018-05-31T15:57:44.222Z,41.42
2018-05-31T16:00:16.266Z,41.02
2018-05-31T16:02:48.220Z,41.70
2018-05-31T16:05:20.195Z,41.86
2018-05-31T16:07:52.510Z,41.78
2018-05-31T16:10:24.251Z,41.77
2018-05-31T16:12:56.490Z,41.46
2018-05-31T16:15:28.290Z,41.36
2018-05-31T16:18:00.273Z,41.41
2018-05-31T16:20:32.503Z,41.44
2018-05-31T16:23:04.651Z,41.44
2018-05-31T16:27:47.776Z,41.13
2018-05-31T16:30:20.277Z,40.90
2018-05-31T16:32:52.262Z,40.61
2018-05-31T16:38:14.718Z,40.98
2018-05-31T16:40:46.631Z,40.89
2018-05-31T16:43:18.503Z,40.71
2018-05-31T16:45:50.600Z,41.07
2018-05-31T16:48:22.732Z,40.91
2018-05-31T16:50:54.573Z,40.33
2018-05-31T16:53:25.403Z,39.97
2018-05-31T16:55:57.540Z,40.00
2018-05-31T16:58:28.396Z,40.44
2018-05-31T17:01:00.539Z,39.68
2018-05-31T17:03:32.637Z,40.30
2018-05-31T17:06:04.531Z,40.40
2018-05-31T17:08:36.523Z,40.55
2018-05-31T17:11:08.545Z,39.97
2018-05-31T17:13:40.622Z,40.04
2018-05-31T17:16:12.563Z,40.06
2018-05-31T17:18:44.625Z,39.86
2018-05-31T17:21:15.262Z,39.68
2018-05-31T17:23:47.560Z,39.44
2018-05-31T17:26:19.680Z,39.32
2018-05-31T17:30:00.543Z,39.17
2018-05-31T17:32:32.630Z,39.38
2018-05-31T17:37:46.034Z,39.02
2018-05-31T17:40:18.536Z,38.55
2018-05-31T17:42:49.281Z,38.74
2018-05-31T17:45:21.621Z,38.86
2018-05-31T17:47:53.539Z,38.88
2018-05-31T17:50:25.520Z,38.68
2018-05-31T17:52:57.586Z,38.58
2018-05-31T17:55:28.371Z,39.04
2018-05-31T17:58:00.577Z,39.15
2018-05-31T18:01:06.704Z,39.35
2018-05-31T18:03:38.552Z,38.87
2018-05-31T18:06:10.494Z,37.81
2018-05-31T18:08:43.573Z,39.77
2018-05-31T18:11:14.351Z,39.79
2018-05-31T18:13:46.230Z,38.27
2018-05-31T18:16:18.277Z,38.05
2018-05-31T18:18:51.628Z,38.58
2018-05-31T18:21:22.074Z,38.61
2018-05-31T18:23:54.221Z,38.59
2018-05-31T18:26:27.765Z,38.10
2018-05-31T18:28:59.575Z,38.03
2018-05-31T18:31:31.662Z,37.87
2018-05-31T18:34:04.886Z,37.82
2018-05-31T18:36:38.525Z,37.32
2018-05-31T18:39:10.285Z,37.26
2018-05-31T18:41:42.251Z,37.26
2018-05-31T18:44:14.493Z,36.88
2018-05-31T18:46:46.560Z,37.05
2018-05-31T18:49:18.686Z,36.58
2018-05-31T18:51:50.516Z,36.55
2018-05-31T18:59:43.516Z,35.74
2018-05-31T19:02:15.611Z,36.22
2018-05-31T19:04:47.311Z,36.49
2018-05-31T19:07:43.672Z,35.92
2018-05-31T19:10:15.509Z,35.63
2018-05-31T19:12:52.626Z,35.62
2018-05-31T19:17:38.783Z,35.61
2018-05-31T19:20:10.638Z,35.87
2018-05-31T19:22:42.669Z,35.66
2018-05-31T19:25:19.644Z,34.89
2018-05-31T19:27:51.619Z,34.94
2018-05-31T19:30:28.588Z,35.02
2018-05-31T19:32:59.089Z,35.24
2018-05-31T19:38:46.512Z,34.86
2018-05-31T19:41:18.249Z,34.72
2018-05-31T19:43:55.590Z,34.69
2018-05-31T19:48:48.480Z,34.78
2018-05-31T19:51:25.603Z,35.05
2018-05-31T19:53:56.507Z,34.53
2018-05-31T19:56:29.976Z,34.83
2018-05-31T19:59:07.077Z,34.71
2018-05-31T20:01:44.224Z,34.76
2018-05-31T20:04:15.531Z,34.87
2018-05-31T20:08:31.399Z,34.11
2018-05-31T20:11:03.620Z,34.91
2018-05-31T20:13:35.608Z,34.29
2018-05-31T20:16:06.223Z,33.77
2018-05-31T20:18:38.301Z,34.45
2018-05-31T20:21:10.280Z,34.75
2018-05-31T20:23:42.275Z,35.09
2018-05-31T20:26:14.267Z,34.77
2018-05-31T20:28:46.289Z,34.38
2018-05-31T20:31:18.269Z,34.48
2018-05-31T20:33:50.294Z,34.95
2018-05-31T20:36:22.254Z,34.25
2018-05-31T20:38:54.263Z,34.54
2018-05-31T20:41:26.280Z,34.49
2018-05-31T20:43:58.267Z,34.60
2018-05-31T20:46:30.266Z,33.94
2018-05-31T20:49:02.276Z,34.67
2018-05-31T20:51:34.250Z,33.82
2018-05-31T20:54:06.281Z,34.32
2018-05-31T20:56:38.258Z,33.75
2018-05-31T20:59:10.273Z,34.13
2018-05-31T21:01:42.284Z,34.34
2018-05-31T21:04:14.273Z,33.34
2018-05-31T21:06:46.249Z,33.91
2018-05-31T21:09:18.275Z,34.00
2018-05-31T21:11:50.315Z,33.91
2018-05-31T21:14:22.266Z,34.08
2018-05-31T21:16:54.263Z,34.00
2018-05-31T21:19:26.260Z,34.14
2018-05-31T21:21:58.299Z,33.87
2018-05-31T21:24:30.484Z,33.92
2018-05-31T21:27:02.304Z,33.52
2018-05-31T21:29:34.284Z,34.02
2018-05-31T21:32:06.284Z,34.15
2018-05-31T21:34:38.253Z,33.61
2018-05-31T21:37:10.271Z,33.15
2018-05-31T21:39:42.255Z,32.97
2018-05-31T21:42:14.251Z,33.55
2018-05-31T21:44:46.118Z,33.33
2018-05-31T21:47:17.977Z,32.71
2018-05-31T21:49:49.593Z,32.99
2018-05-31T21:52:20.118Z,32.99
2018-05-31T21:54:51.619Z,33.20
2018-05-31T21:57:23.716Z,33.33
2018-05-31T21:59:54.235Z,33.00
2018-05-31T22:02:26.312Z,33.59
2018-05-31T22:04:58.249Z,33.36
2018-05-31T22:07:30.235Z,33.56
2018-05-31T22:10:02.235Z,33.51
2018-05-31T22:12:34.250Z,33.65
2018-05-31T22:15:06.247Z,33.22
2018-05-31T22:17:38.260Z,33.12
2018-05-31T22:20:10.250Z,33.37
2018-05-31T22:22:42.224Z,33.48
2018-05-31T22:25:14.239Z,33.14
2018-05-31T22:27:46.251Z,32.62
2018-05-31T22:30:18.287Z,33.34
2018-05-31T22:32:50.259Z,32.72
2018-05-31T22:35:22.248Z,33.22
2018-05-31T22:37:54.239Z,32.76
2018-05-31T22:42:21.666Z,32.95
2018-05-31T22:44:53.553Z,32.39
2018-05-31T22:47:24.045Z,32.73
2018-05-31T22:49:55.559Z,32.89
2018-05-31T22:52:26.424Z,32.85
2018-05-31T22:54:58.555Z,32.63
2018-05-31T22:57:29.074Z,32.63
2018-05-31T23:00:01.711Z,32.54
2018-05-31T23:02:33.570Z,32.24
2018-05-31T23:05:04.491Z,32.32
2018-05-31T23:07:36.225Z,32.45
2018-05-31T23:10:09.569Z,32.46
2018-05-31T23:13:33.571Z,32.88
2018-05-31T23:16:04.040Z,32.81
2018-05-31T23:18:35.562Z,32.14
2018-05-31T23:21:07.420Z,32.30
2018-05-31T23:23:39.231Z,32.20
2018-05-31T23:26:11.217Z,32.50
2018-05-31T23:28:43.468Z,32.70
2018-05-31T23:31:15.225Z,32.29
2018-05-31T23:33:47.112Z,32.49
2018-05-31T23:36:19.123Z,32.12
2018-05-31T23:38:50.964Z,32.09
2018-05-31T23:41:23.216Z,31.92
2018-05-31T23:43:55.238Z,32.12
2018-05-31T23:46:26.597Z,32.44
2018-05-31T23:48:58.062Z,32.43
2018-05-31T23:51:30.561Z,32.50
2018-05-31T23:54:02.414Z,32.54
2018-05-31T23:57:35.513Z,32.52
